sensor_id;sensor_type;location;lat;lon;timestamp;P1;durP1;ratioP1;P2;durP2;ratioP2
6121;SDS011;3091;51.506;7.672;2024-02-26T00:02:18;17.70;;;17.10;;
6121;SDS011;3091;51.506;7.672;2024-02-26T00:04:44;17.03;;;16.37;;
6121;SDS011;3091;51.506;7.672;2024-02-26T00:07:10;17.90;;;16.93;;
6121;SDS011;3091;51.506;7.672;2024-02-26T00:09:36;17.00;;;16.30;;
6121;SDS011;3091;51.506;7.672;2024-02-26T00:12:03;17.10;;;16.40;;
6121;SDS011;3091;51.506;7.672;2024-02-26T00:14:30;17.20;;;16.40;;
6121;SDS011;3091;51.506;7.672;2024-02-26T00:16:56;16.33;;;15.73;;
6121;SDS011;3091;51.506;7.672;2024-02-26T00:19:22;16.50;;;15.90;;
6121;SDS011;3091;51.506;7.672;2024-02-26T00:21:48;17.30;;;16.60;;
6121;SDS011;3091;51.506;7.672;2024-02-26T00:24:14;17.50;;;16.80;;
6121;SDS011;3091;51.506;7.672;2024-02-26T00:26:40;17.50;;;16.80;;
6121;SDS011;3091;51.506;7.672;2024-02-26T00:29:06;16.70;;;16.10;;
6121;SDS011;3091;51.506;7.672;2024-02-26T00:31:32;17.03;;;16.43;;
6121;SDS011;3091;51.506;7.672;2024-02-26T00:33:58;17.70;;;17.00;;
6121;SDS011;3091;51.506;7.672;2024-02-26T00:36:24;17.60;;;16.90;;
6121;SDS011;3091;51.506;7.672;2024-02-26T00:38:50;16.77;;;16.17;;
6121;SDS011;3091;51.506;7.672;2024-02-26T00:41:17;17.60;;;16.90;;
6121;SDS011;3091;51.506;7.672;2024-02-26T00:43:44;17.50;;;16.70;;
6121;SDS011;3091;51.506;7.672;2024-02-26T00:46:10;17.20;;;16.50;;
6121;SDS011;3091;51.506;7.672;2024-02-26T00:48:36;17.40;;;16.80;;
6121;SDS011;3091;51.506;7.672;2024-02-26T00:51:02;17.40;;;16.73;;
6121;SDS011;3091;51.506;7.672;2024-02-26T00:53:30;17.33;;;16.70;;
6121;SDS011;3091;51.506;7.672;2024-02-26T00:55:58;18.10;;;17.40;;
6121;SDS011;3091;51.506;7.672;2024-02-26T00:58:25;17.30;;;16.60;;
6121;SDS011;3091;51.506;7.672;2024-02-26T01:00:51;17.07;;;16.37;;
6121;SDS011;3091;51.506;7.672;2024-02-26T01:03:17;17.67;;;16.87;;
6121;SDS011;3091;51.506;7.672;2024-02-26T01:05:44;17.03;;;16.33;;
6121;SDS011;3091;51.506;7.672;2024-02-26T01:08:10;16.87;;;16.17;;
6121;SDS011;3091;51.506;7.672;2024-02-26T01:10:36;17.40;;;16.70;;
6121;SDS011;3091;51.506;7.672;2024-02-26T01:13:02;17.33;;;16.53;;
6121;SDS011;3091;51.506;7.672;2024-02-26T01:15:28;17.40;;;16.70;;
6121;SDS011;3091;51.506;7.672;2024-02-26T01:17:57;17.63;;;16.83;;
6121;SDS011;3091;51.506;7.672;2024-02-26T01:20:23;18.00;;;17.20;;
6121;SDS011;3091;51.506;7.672;2024-02-26T01:22:49;17.73;;;17.03;;
6121;SDS011;3091;51.506;7.672;2024-02-26T01:25:16;17.70;;;16.90;;
6121;SDS011;3091;51.506;7.672;2024-02-26T01:27:42;17.30;;;16.50;;
6121;SDS011;3091;51.506;7.672;2024-02-26T01:30:11;17.07;;;16.47;;
6121;SDS011;3091;51.506;7.672;2024-02-26T01:32:39;18.10;;;17.40;;
6121;SDS011;3091;51.506;7.672;2024-02-26T01:35:05;18.50;;;17.67;;
6121;SDS011;3091;51.506;7.672;2024-02-26T01:37:36;16.73;;;16.03;;
6121;SDS011;3091;51.506;7.672;2024-02-26T01:40:03;17.40;;;16.60;;
6121;SDS011;3091;51.506;7.672;2024-02-26T01:42:30;17.90;;;17.17;;
6121;SDS011;3091;51.506;7.672;2024-02-26T01:45:00;20.27;;;19.10;;
6121;SDS011;3091;51.506;7.672;2024-02-26T01:47:26;17.87;;;17.17;;
6121;SDS011;3091;51.506;7.672;2024-02-26T01:49:53;17.83;;;17.13;;
6121;SDS011;3091;51.506;7.672;2024-02-26T01:52:19;19.20;;;18.40;;
6121;SDS011;3091;51.506;7.672;2024-02-26T01:54:47;18.27;;;17.57;;
6121;SDS011;3091;51.506;7.672;2024-02-26T01:57:13;17.90;;;17.20;;
6121;SDS011;3091;51.506;7.672;2024-02-26T01:59:40;16.67;;;16.07;;
6121;SDS011;3091;51.506;7.672;2024-02-26T02:02:09;16.90;;;16.30;;
6121;SDS011;3091;51.506;7.672;2024-02-26T02:04:36;16.87;;;16.27;;
6121;SDS011;3091;51.506;7.672;2024-02-26T02:07:02;18.90;;;18.00;;
6121;SDS011;3091;51.506;7.672;2024-02-26T02:09:28;18.00;;;17.30;;
6121;SDS011;3091;51.506;7.672;2024-02-26T02:11:57;18.20;;;17.40;;
6121;SDS011;3091;51.506;7.672;2024-02-26T02:14:24;18.03;;;17.23;;
6121;SDS011;3091;51.506;7.672;2024-02-26T02:16:51;18.70;;;17.90;;
6121;SDS011;3091;51.506;7.672;2024-02-26T02:19:17;17.90;;;17.20;;
6121;SDS011;3091;51.506;7.672;2024-02-26T02:21:43;17.47;;;16.77;;
6121;SDS011;3091;51.506;7.672;2024-02-26T02:24:09;17.90;;;17.20;;
6121;SDS011;3091;51.506;7.672;2024-02-26T02:26:35;18.40;;;17.70;;
6121;SDS011;3091;51.506;7.672;2024-02-26T02:29:01;19.60;;;18.70;;
6121;SDS011;3091;51.506;7.672;2024-02-26T02:31:28;18.97;;;18.23;;
6121;SDS011;3091;51.506;7.672;2024-02-26T02:33:54;19.70;;;18.90;;
6121;SDS011;3091;51.506;7.672;2024-02-26T02:36:23;19.70;;;18.90;;
6121;SDS011;3091;51.506;7.672;2024-02-26T02:38:49;18.80;;;18.00;;
6121;SDS011;3091;51.506;7.672;2024-02-26T02:41:16;18.33;;;17.43;;
6121;SDS011;3091;51.506;7.672;2024-02-26T02:43:42;18.60;;;17.80;;
6121;SDS011;3091;51.506;7.672;2024-02-26T02:46:08;18.93;;;18.03;;
6121;SDS011;3091;51.506;7.672;2024-02-26T02:48:36;18.37;;;17.57;;
6121;SDS011;3091;51.506;7.672;2024-02-26T02:51:02;18.63;;;17.87;;
6121;SDS011;3091;51.506;7.672;2024-02-26T02:53:29;19.23;;;18.43;;
6121;SDS011;3091;51.506;7.672;2024-02-26T02:55:55;18.97;;;18.17;;
6121;SDS011;3091;51.506;7.672;2024-02-26T02:58:21;18.57;;;17.80;;
6121;SDS011;3091;51.506;7.672;2024-02-26T03:00:47;17.93;;;17.23;;
6121;SDS011;3091;51.506;7.672;2024-02-26T03:03:13;17.90;;;17.20;;
6121;SDS011;3091;51.506;7.672;2024-02-26T03:05:39;17.30;;;16.60;;
6121;SDS011;3091;51.506;7.672;2024-02-26T03:08:05;18.40;;;17.60;;
6121;SDS011;3091;51.506;7.672;2024-02-26T03:10:34;18.33;;;17.53;;
6121;SDS011;3091;51.506;7.672;2024-02-26T03:13:00;18.40;;;17.60;;
6121;SDS011;3091;51.506;7.672;2024-02-26T03:15:26;18.90;;;18.10;;
6121;SDS011;3091;51.506;7.672;2024-02-26T03:17:52;18.73;;;17.93;;
6121;SDS011;3091;51.506;7.672;2024-02-26T03:20:18;18.87;;;18.07;;
6121;SDS011;3091;51.506;7.672;2024-02-26T03:22:44;19.20;;;18.40;;
6121;SDS011;3091;51.506;7.672;2024-02-26T03:25:10;19.30;;;18.50;;
6121;SDS011;3091;51.506;7.672;2024-02-26T03:27:39;18.77;;;18.07;;
6121;SDS011;3091;51.506;7.672;2024-02-26T03:30:05;17.50;;;16.80;;
6121;SDS011;3091;51.506;7.672;2024-02-26T03:32:32;18.60;;;17.80;;
6121;SDS011;3091;51.506;7.672;2024-02-26T03:34:58;18.90;;;18.10;;
6121;SDS011;3091;51.506;7.672;2024-02-26T03:37:25;19.23;;;18.43;;
6121;SDS011;3091;51.506;7.672;2024-02-26T03:39:51;20.30;;;19.50;;
6121;SDS011;3091;51.506;7.672;2024-02-26T03:42:19;21.10;;;20.20;;
6121;SDS011;3091;51.506;7.672;2024-02-26T03:44:46;20.80;;;19.90;;
6121;SDS011;3091;51.506;7.672;2024-02-26T03:47:12;21.20;;;20.30;;
6121;SDS011;3091;51.506;7.672;2024-02-26T03:49:38;22.00;;;20.90;;
6121;SDS011;3091;51.506;7.672;2024-02-26T03:52:06;21.80;;;20.70;;
6121;SDS011;3091;51.506;7.672;2024-02-26T03:54:32;22.17;;;21.07;;
6121;SDS011;3091;51.506;7.672;2024-02-26T03:56:58;22.97;;;21.87;;
6121;SDS011;3091;51.506;7.672;2024-02-26T03:59:25;25.23;;;23.93;;
6121;SDS011;3091;51.506;7.672;2024-02-26T04:01:51;27.33;;;25.93;;
6121;SDS011;3091;51.506;7.672;2024-02-26T04:04:17;29.17;;;27.67;;
6121;SDS011;3091;51.506;7.672;2024-02-26T04:06:44;28.73;;;27.23;;
6121;SDS011;3091;51.506;7.672;2024-02-26T04:09:10;30.87;;;29.27;;
6121;SDS011;3091;51.506;7.672;2024-02-26T04:11:36;34.73;;;32.93;;
6121;SDS011;3091;51.506;7.672;2024-02-26T04:14:03;33.70;;;31.90;;
6121;SDS011;3091;51.506;7.672;2024-02-26T04:16:29;34.47;;;32.57;;
6121;SDS011;3091;51.506;7.672;2024-02-26T04:18:55;35.90;;;34.00;;
6121;SDS011;3091;51.506;7.672;2024-02-26T04:21:21;36.80;;;34.80;;
6121;SDS011;3091;51.506;7.672;2024-02-26T04:23:47;40.40;;;38.20;;
6121;SDS011;3091;51.506;7.672;2024-02-26T04:26:14;41.47;;;39.17;;
6121;SDS011;3091;51.506;7.672;2024-02-26T04:28:40;42.90;;;40.50;;
6121;SDS011;3091;51.506;7.672;2024-02-26T04:31:06;43.00;;;40.60;;
6121;SDS011;3091;51.506;7.672;2024-02-26T04:33:36;41.97;;;39.57;;
6121;SDS011;3091;51.506;7.672;2024-02-26T04:36:02;42.30;;;40.00;;
6121;SDS011;3091;51.506;7.672;2024-02-26T04:38:28;44.90;;;42.20;;
6121;SDS011;3091;51.506;7.672;2024-02-26T04:40:54;45.47;;;42.97;;
6121;SDS011;3091;51.506;7.672;2024-02-26T04:43:20;43.07;;;40.67;;
6121;SDS011;3091;51.506;7.672;2024-02-26T04:45:46;43.33;;;40.93;;
6121;SDS011;3091;51.506;7.672;2024-02-26T04:48:13;37.33;;;35.23;;
6121;SDS011;3091;51.506;7.672;2024-02-26T04:50:39;34.30;;;32.00;;
6121;SDS011;3091;51.506;7.672;2024-02-26T04:53:05;30.10;;;28.40;;
6121;SDS011;3091;51.506;7.672;2024-02-26T04:55:31;27.50;;;26.00;;
6121;SDS011;3091;51.506;7.672;2024-02-26T04:57:57;26.70;;;25.30;;
6121;SDS011;3091;51.506;7.672;2024-02-26T05:00:23;24.93;;;23.53;;
6121;SDS011;3091;51.506;7.672;2024-02-26T05:02:49;25.47;;;24.03;;
6121;SDS011;3091;51.506;7.672;2024-02-26T05:05:15;25.20;;;23.80;;
6121;SDS011;3091;51.506;7.672;2024-02-26T05:07:42;24.20;;;22.90;;
6121;SDS011;3091;51.506;7.672;2024-02-26T05:10:08;24.10;;;22.80;;
6121;SDS011;3091;51.506;7.672;2024-02-26T05:12:35;23.87;;;22.57;;
6121;SDS011;3091;51.506;7.672;2024-02-26T05:15:01;24.50;;;23.20;;
6121;SDS011;3091;51.506;7.672;2024-02-26T05:17:27;23.70;;;22.40;;
6121;SDS011;3091;51.506;7.672;2024-02-26T05:19:53;25.27;;;23.87;;
6121;SDS011;3091;51.506;7.672;2024-02-26T05:22:19;25.40;;;24.00;;
6121;SDS011;3091;51.506;7.672;2024-02-26T05:24:46;26.10;;;24.70;;
6121;SDS011;3091;51.506;7.672;2024-02-26T05:27:12;25.40;;;24.00;;
6121;SDS011;3091;51.506;7.672;2024-02-26T05:29:38;25.50;;;24.10;;
6121;SDS011;3091;51.506;7.672;2024-02-26T05:32:04;28.23;;;26.73;;
6121;SDS011;3091;51.506;7.672;2024-02-26T05:34:33;32.20;;;30.50;;
6121;SDS011;3091;51.506;7.672;2024-02-26T05:36:59;37.47;;;35.47;;
6121;SDS011;3091;51.506;7.672;2024-02-26T05:39:25;38.00;;;35.93;;
6121;SDS011;3091;51.506;7.672;2024-02-26T05:41:51;40.00;;;37.90;;
6121;SDS011;3091;51.506;7.672;2024-02-26T05:44:18;54.13;;;51.33;;
6121;SDS011;3091;51.506;7.672;2024-02-26T05:46:44;59.63;;;56.57;;
6121;SDS011;3091;51.506;7.672;2024-02-26T05:49:10;70.33;;;66.83;;
6121;SDS011;3091;51.506;7.672;2024-02-26T05:51:36;76.47;;;72.77;;
6121;SDS011;3091;51.506;7.672;2024-02-26T05:54:02;78.70;;;74.90;;
6121;SDS011;3091;51.506;7.672;2024-02-26T05:56:28;78.80;;;75.00;;
6121;SDS011;3091;51.506;7.672;2024-02-26T05:58:54;91.37;;;86.97;;
6121;SDS011;3091;51.506;7.672;2024-02-26T06:01:21;93.53;;;89.13;;
6121;SDS011;3091;51.506;7.672;2024-02-26T06:03:47;86.40;;;82.10;;
6121;SDS011;3091;51.506;7.672;2024-02-26T06:06:13;87.70;;;83.30;;
6121;SDS011;3091;51.506;7.672;2024-02-26T06:08:41;108.10;;;102.90;;
6121;SDS011;3091;51.506;7.672;2024-02-26T06:11:08;102.40;;;97.30;;
6121;SDS011;3091;51.506;7.672;2024-02-26T06:13:34;97.67;;;92.57;;
6121;SDS011;3091;51.506;7.672;2024-02-26T06:16:01;103.50;;;98.30;;
6121;SDS011;3091;51.506;7.672;2024-02-26T06:18:27;96.13;;;91.13;;
6121;SDS011;3091;51.506;7.672;2024-02-26T06:20:53;100.50;;;95.30;;
6121;SDS011;3091;51.506;7.672;2024-02-26T06:23:19;99.77;;;94.43;;
6121;SDS011;3091;51.506;7.672;2024-02-26T06:25:48;102.43;;;97.23;;
6121;SDS011;3091;51.506;7.672;2024-02-26T06:28:14;90.73;;;85.83;;
6121;SDS011;3091;51.506;7.672;2024-02-26T06:30:40;98.87;;;93.67;;
6121;SDS011;3091;51.506;7.672;2024-02-26T06:33:06;97.27;;;92.17;;
6121;SDS011;3091;51.506;7.672;2024-02-26T06:35:32;92.07;;;87.17;;
6121;SDS011;3091;51.506;7.672;2024-02-26T06:37:58;94.27;;;89.33;;
6121;SDS011;3091;51.506;7.672;2024-02-26T06:40:25;100.50;;;95.30;;
6121;SDS011;3091;51.506;7.672;2024-02-26T06:42:51;94.90;;;89.80;;
6121;SDS011;3091;51.506;7.672;2024-02-26T06:45:17;98.27;;;93.10;;
6121;SDS011;3091;51.506;7.672;2024-02-26T06:47:44;93.43;;;88.47;;
6121;SDS011;3091;51.506;7.672;2024-02-26T06:50:14;114.03;;;108.53;;
6121;SDS011;3091;51.506;7.672;2024-02-26T06:52:40;110.60;;;105.20;;
6121;SDS011;3091;51.506;7.672;2024-02-26T06:55:06;111.60;;;106.20;;
6121;SDS011;3091;51.506;7.672;2024-02-26T06:57:33;112.90;;;107.60;;
6121;SDS011;3091;51.506;7.672;2024-02-26T06:59:59;117.30;;;111.90;;
6121;SDS011;3091;51.506;7.672;2024-02-26T07:02:25;119.17;;;113.77;;
6121;SDS011;3091;51.506;7.672;2024-02-26T07:04:51;114.43;;;109.23;;
6121;SDS011;3091;51.506;7.672;2024-02-26T07:07:17;107.33;;;102.13;;
6121;SDS011;3091;51.506;7.672;2024-02-26T07:09:43;108.80;;;103.40;;
6121;SDS011;3091;51.506;7.672;2024-02-26T07:12:10;109.53;;;104.33;;
6121;SDS011;3091;51.506;7.672;2024-02-26T07:14:36;112.20;;;106.73;;
6121;SDS011;3091;51.506;7.672;2024-02-26T07:17:02;109.30;;;104.10;;
6121;SDS011;3091;51.506;7.672;2024-02-26T07:19:29;109.10;;;103.90;;
6121;SDS011;3091;51.506;7.672;2024-02-26T07:21:55;106.47;;;101.47;;
6121;SDS011;3091;51.506;7.672;2024-02-26T07:24:21;112.23;;;107.03;;
6121;SDS011;3091;51.506;7.672;2024-02-26T07:26:47;110.03;;;104.77;;
6121;SDS011;3091;51.506;7.672;2024-02-26T07:29:13;114.37;;;109.00;;
6121;SDS011;3091;51.506;7.672;2024-02-26T07:31:39;114.17;;;108.77;;
6121;SDS011;3091;51.506;7.672;2024-02-26T07:34:05;116.70;;;111.30;;
6121;SDS011;3091;51.506;7.672;2024-02-26T07:36:31;111.27;;;106.07;;
6121;SDS011;3091;51.506;7.672;2024-02-26T07:38:57;112.90;;;107.60;;
6121;SDS011;3091;51.506;7.672;2024-02-26T07:41:23;104.33;;;99.13;;
6121;SDS011;3091;51.506;7.672;2024-02-26T07:43:50;103.30;;;98.20;;
6121;SDS011;3091;51.506;7.672;2024-02-26T07:46:16;104.00;;;98.47;;
6121;SDS011;3091;51.506;7.672;2024-02-26T07:48:42;97.60;;;92.90;;
6121;SDS011;3091;51.506;7.672;2024-02-26T07:51:08;102.23;;;97.33;;
6121;SDS011;3091;51.506;7.672;2024-02-26T07:53:34;101.47;;;96.57;;
6121;SDS011;3091;51.506;7.672;2024-02-26T07:56:00;99.50;;;94.70;;
6121;SDS011;3091;51.506;7.672;2024-02-26T07:58:28;103.03;;;98.07;;
6121;SDS011;3091;51.506;7.672;2024-02-26T08:00:54;106.70;;;101.60;;
6121;SDS011;3091;51.506;7.672;2024-02-26T08:03:20;104.90;;;100.00;;
6121;SDS011;3091;51.506;7.672;2024-02-26T08:05:46;99.87;;;95.07;;
6121;SDS011;3091;51.506;7.672;2024-02-26T08:08:13;104.93;;;100.03;;
6121;SDS011;3091;51.506;7.672;2024-02-26T08:10:39;107.47;;;102.27;;
6121;SDS011;3091;51.506;7.672;2024-02-26T08:13:07;99.30;;;94.40;;
6121;SDS011;3091;51.506;7.672;2024-02-26T08:15:34;102.73;;;97.37;;
6121;SDS011;3091;51.506;7.672;2024-02-26T08:18:02;101.90;;;97.00;;
6121;SDS011;3091;51.506;7.672;2024-02-26T08:20:28;103.40;;;98.33;;
6121;SDS011;3091;51.506;7.672;2024-02-26T08:22:55;108.40;;;103.50;;
6121;SDS011;3091;51.506;7.672;2024-02-26T08:25:21;112.53;;;107.43;;
6121;SDS011;3091;51.506;7.672;2024-02-26T08:27:47;106.20;;;101.30;;
6121;SDS011;3091;51.506;7.672;2024-02-26T08:30:14;105.07;;;100.17;;
6121;SDS011;3091;51.506;7.672;2024-02-26T08:32:45;93.83;;;89.10;;
6121;SDS011;3091;51.506;7.672;2024-02-26T08:35:11;95.40;;;90.70;;
6121;SDS011;3091;51.506;7.672;2024-02-26T08:37:38;98.80;;;93.90;;
6121;SDS011;3091;51.506;7.672;2024-02-26T08:40:04;100.00;;;95.13;;
6121;SDS011;3091;51.506;7.672;2024-02-26T08:42:33;96.97;;;92.27;;
6121;SDS011;3091;51.506;7.672;2024-02-26T08:44:59;98.90;;;94.20;;
6121;SDS011;3091;51.506;7.672;2024-02-26T08:47:26;113.40;;;108.23;;
6121;SDS011;3091;51.506;7.672;2024-02-26T08:49:53;110.30;;;105.30;;
6121;SDS011;3091;51.506;7.672;2024-02-26T08:52:19;101.83;;;96.93;;
6121;SDS011;3091;51.506;7.672;2024-02-26T08:54:46;100.50;;;95.60;;
6121;SDS011;3091;51.506;7.672;2024-02-26T08:57:12;107.93;;;102.93;;
6121;SDS011;3091;51.506;7.672;2024-02-26T08:59:38;102.60;;;97.70;;
6121;SDS011;3091;51.506;7.672;2024-02-26T09:02:05;103.00;;;98.10;;
6121;SDS011;3091;51.506;7.672;2024-02-26T09:04:33;103.27;;;98.57;;
6121;SDS011;3091;51.506;7.672;2024-02-26T09:07:00;110.13;;;105.13;;
6121;SDS011;3091;51.506;7.672;2024-02-26T09:09:27;120.43;;;115.13;;
6121;SDS011;3091;51.506;7.672;2024-02-26T09:11:53;109.80;;;104.70;;
6121;SDS011;3091;51.506;7.672;2024-02-26T09:14:20;107.93;;;102.83;;
6121;SDS011;3091;51.506;7.672;2024-02-26T09:16:46;109.67;;;104.53;;
6121;SDS011;3091;51.506;7.672;2024-02-26T09:19:13;102.33;;;97.33;;
6121;SDS011;3091;51.506;7.672;2024-02-26T09:21:43;111.50;;;106.30;;
6121;SDS011;3091;51.506;7.672;2024-02-26T09:24:14;110.00;;;104.87;;
6121;SDS011;3091;51.506;7.672;2024-02-26T09:26:40;102.93;;;98.03;;
6121;SDS011;3091;51.506;7.672;2024-02-26T09:29:06;112.03;;;106.93;;
6121;SDS011;3091;51.506;7.672;2024-02-26T09:31:35;109.90;;;104.90;;
6121;SDS011;3091;51.506;7.672;2024-02-26T09:34:02;114.40;;;109.30;;
6121;SDS011;3091;51.506;7.672;2024-02-26T09:36:29;102.70;;;98.00;;
6121;SDS011;3091;51.506;7.672;2024-02-26T09:38:56;96.90;;;92.13;;
6121;SDS011;3091;51.506;7.672;2024-02-26T09:41:22;100.20;;;95.30;;
6121;SDS011;3091;51.506;7.672;2024-02-26T09:43:48;102.73;;;97.93;;
6121;SDS011;3091;51.506;7.672;2024-02-26T09:46:15;105.07;;;100.27;;
6121;SDS011;3091;51.506;7.672;2024-02-26T09:48:45;103.50;;;98.70;;
6121;SDS011;3091;51.506;7.672;2024-02-26T09:51:12;107.53;;;102.63;;
6121;SDS011;3091;51.506;7.672;2024-02-26T09:53:39;106.97;;;101.87;;
6121;SDS011;3091;51.506;7.672;2024-02-26T09:56:09;100.27;;;95.57;;
6121;SDS011;3091;51.506;7.672;2024-02-26T09:58:35;95.80;;;91.30;;
6121;SDS011;3091;51.506;7.672;2024-02-26T10:01:02;87.27;;;83.17;;
6121;SDS011;3091;51.506;7.672;2024-02-26T10:03:39;86.73;;;82.63;;
6121;SDS011;3091;51.506;7.672;2024-02-26T10:06:16;74.53;;;70.73;;
6121;SDS011;3091;51.506;7.672;2024-02-26T10:08:42;63.63;;;60.33;;
6121;SDS011;3091;51.506;7.672;2024-02-26T10:11:09;62.70;;;59.50;;
6121;SDS011;3091;51.506;7.672;2024-02-26T10:13:38;58.87;;;56.07;;
6121;SDS011;3091;51.506;7.672;2024-02-26T10:16:04;52.60;;;50.10;;
6121;SDS011;3091;51.506;7.672;2024-02-26T10:18:49;41.90;;;39.80;;
6121;SDS011;3091;51.506;7.672;2024-02-26T10:21:16;41.17;;;39.17;;
6121;SDS011;3091;51.506;7.672;2024-02-26T10:23:45;38.27;;;36.17;;
6121;SDS011;3091;51.506;7.672;2024-02-26T10:26:12;35.60;;;33.50;;
6121;SDS011;3091;51.506;7.672;2024-02-26T10:28:39;30.23;;;28.50;;
6121;SDS011;3091;51.506;7.672;2024-02-26T10:31:06;27.33;;;25.93;;
6121;SDS011;3091;51.506;7.672;2024-02-26T10:33:35;29.03;;;27.43;;
6121;SDS011;3091;51.506;7.672;2024-02-26T10:36:02;25.90;;;24.60;;
6121;SDS011;3091;51.506;7.672;2024-02-26T10:38:29;24.77;;;23.57;;
6121;SDS011;3091;51.506;7.672;2024-02-26T10:40:58;24.10;;;23.00;;
6121;SDS011;3091;51.506;7.672;2024-02-26T10:43:29;23.53;;;22.43;;
6121;SDS011;3091;51.506;7.672;2024-02-26T10:45:55;22.07;;;21.07;;
6121;SDS011;3091;51.506;7.672;2024-02-26T10:48:22;22.30;;;21.10;;
6121;SDS011;3091;51.506;7.672;2024-02-26T10:50:48;22.87;;;21.50;;
6121;SDS011;3091;51.506;7.672;2024-02-26T10:53:16;21.20;;;20.30;;
6121;SDS011;3091;51.506;7.672;2024-02-26T10:55:44;21.70;;;20.70;;
6121;SDS011;3091;51.506;7.672;2024-02-26T10:58:13;21.30;;;20.30;;
6121;SDS011;3091;51.506;7.672;2024-02-26T11:00:41;21.70;;;20.80;;
6121;SDS011;3091;51.506;7.672;2024-02-26T11:03:08;22.73;;;21.70;;
6121;SDS011;3091;51.506;7.672;2024-02-26T11:05:35;21.40;;;20.50;;
6121;SDS011;3091;51.506;7.672;2024-02-26T11:08:02;21.80;;;20.90;;
6121;SDS011;3091;51.506;7.672;2024-02-26T11:10:30;22.37;;;20.97;;
6121;SDS011;3091;51.506;7.672;2024-02-26T11:12:56;19.70;;;18.90;;
6121;SDS011;3091;51.506;7.672;2024-02-26T11:15:24;18.93;;;18.13;;
6121;SDS011;3091;51.506;7.672;2024-02-26T11:17:50;18.70;;;17.90;;
6121;SDS011;3091;51.506;7.672;2024-02-26T11:20:17;19.87;;;18.90;;
6121;SDS011;3091;51.506;7.672;2024-02-26T11:22:45;20.20;;;19.40;;
6121;SDS011;3091;51.506;7.672;2024-02-26T11:25:11;19.80;;;19.00;;
6121;SDS011;3091;51.506;7.672;2024-02-26T11:27:44;20.57;;;19.77;;
6121;SDS011;3091;51.506;7.672;2024-02-26T11:30:13;18.03;;;17.43;;
6121;SDS011;3091;51.506;7.672;2024-02-26T11:32:39;21.97;;;20.80;;
6121;SDS011;3091;51.506;7.672;2024-02-26T11:35:06;19.30;;;18.50;;
6121;SDS011;3091;51.506;7.672;2024-02-26T11:37:33;19.10;;;18.23;;
6121;SDS011;3091;51.506;7.672;2024-02-26T11:39:59;19.50;;;18.80;;
6121;SDS011;3091;51.506;7.672;2024-02-26T11:42:26;18.67;;;17.97;;
6121;SDS011;3091;51.506;7.672;2024-02-26T11:44:53;18.70;;;17.90;;
6121;SDS011;3091;51.506;7.672;2024-02-26T11:47:25;18.43;;;17.73;;
6121;SDS011;3091;51.506;7.672;2024-02-26T11:49:55;18.23;;;17.63;;
6121;SDS011;3091;51.506;7.672;2024-02-26T11:52:21;18.23;;;17.63;;
6121;SDS011;3091;51.506;7.672;2024-02-26T11:54:48;19.80;;;19.10;;
6121;SDS011;3091;51.506;7.672;2024-02-26T11:59:51;19.97;;;19.17;;
6121;SDS011;3091;51.506;7.672;2024-02-26T12:05:04;17.50;;;16.80;;
6121;SDS011;3091;51.506;7.672;2024-02-26T12:07:31;17.63;;;16.93;;
6121;SDS011;3091;51.506;7.672;2024-02-26T12:10:13;19.90;;;19.10;;
6121;SDS011;3091;51.506;7.672;2024-02-26T12:12:41;20.17;;;19.37;;
6121;SDS011;3091;51.506;7.672;2024-02-26T12:15:07;19.83;;;19.03;;
6121;SDS011;3091;51.506;7.672;2024-02-26T12:17:36;19.20;;;18.50;;
6121;SDS011;3091;51.506;7.672;2024-02-26T12:20:07;19.87;;;19.07;;
6121;SDS011;3091;51.506;7.672;2024-02-26T12:22:34;18.80;;;18.10;;
6121;SDS011;3091;51.506;7.672;2024-02-26T12:25:02;20.80;;;20.00;;
6121;SDS011;3091;51.506;7.672;2024-02-26T12:27:28;20.97;;;19.83;;
6121;SDS011;3091;51.506;7.672;2024-02-26T12:29:54;20.17;;;19.37;;
6121;SDS011;3091;51.506;7.672;2024-02-26T12:32:20;21.00;;;20.10;;
6121;SDS011;3091;51.506;7.672;2024-02-26T12:34:47;21.77;;;20.87;;
6121;SDS011;3091;51.506;7.672;2024-02-26T12:37:14;22.80;;;21.90;;
6121;SDS011;3091;51.506;7.672;2024-02-26T12:39:40;23.03;;;22.03;;
6121;SDS011;3091;51.506;7.672;2024-02-26T12:42:07;23.30;;;22.30;;
6121;SDS011;3091;51.506;7.672;2024-02-26T12:44:33;24.40;;;23.40;;
6121;SDS011;3091;51.506;7.672;2024-02-26T12:46:59;24.70;;;23.60;;
6121;SDS011;3091;51.506;7.672;2024-02-26T12:49:28;24.37;;;23.30;;
6121;SDS011;3091;51.506;7.672;2024-02-26T12:51:54;26.60;;;25.47;;
6121;SDS011;3091;51.506;7.672;2024-02-26T12:54:26;27.40;;;26.07;;
6121;SDS011;3091;51.506;7.672;2024-02-26T12:56:53;26.57;;;25.37;;
6121;SDS011;3091;51.506;7.672;2024-02-26T12:59:19;24.37;;;23.27;;
6121;SDS011;3091;51.506;7.672;2024-02-26T13:01:45;24.50;;;23.30;;
6121;SDS011;3091;51.506;7.672;2024-02-26T13:04:11;27.10;;;25.53;;
6121;SDS011;3091;51.506;7.672;2024-02-26T13:06:37;27.70;;;26.10;;
6121;SDS011;3091;51.506;7.672;2024-02-26T13:09:04;25.10;;;23.90;;
6121;SDS011;3091;51.506;7.672;2024-02-26T13:11:31;25.57;;;24.27;;
6121;SDS011;3091;51.506;7.672;2024-02-26T13:13:58;23.60;;;22.50;;
6121;SDS011;3091;51.506;7.672;2024-02-26T13:16:24;26.23;;;25.13;;
6121;SDS011;3091;51.506;7.672;2024-02-26T13:18:51;24.70;;;23.50;;
6121;SDS011;3091;51.506;7.672;2024-02-26T13:21:18;25.03;;;23.87;;
6121;SDS011;3091;51.506;7.672;2024-02-26T13:23:48;23.60;;;22.60;;
6121;SDS011;3091;51.506;7.672;2024-02-26T13:26:15;23.23;;;22.23;;
6121;SDS011;3091;51.506;7.672;2024-02-26T13:28:41;22.63;;;21.63;;
6121;SDS011;3091;51.506;7.672;2024-02-26T13:31:07;22.27;;;21.37;;
6121;SDS011;3091;51.506;7.672;2024-02-26T13:33:34;21.70;;;20.80;;
6121;SDS011;3091;51.506;7.672;2024-02-26T13:36:00;21.37;;;20.47;;
6121;SDS011;3091;51.506;7.672;2024-02-26T13:38:27;21.37;;;20.47;;
6121;SDS011;3091;51.506;7.672;2024-02-26T13:40:56;20.60;;;19.70;;
6121;SDS011;3091;51.506;7.672;2024-02-26T13:43:22;21.17;;;20.37;;
6121;SDS011;3091;51.506;7.672;2024-02-26T13:45:48;18.60;;;18.00;;
6121;SDS011;3091;51.506;7.672;2024-02-26T13:48:14;19.40;;;18.70;;
6121;SDS011;3091;51.506;7.672;2024-02-26T13:50:41;19.87;;;19.07;;
6121;SDS011;3091;51.506;7.672;2024-02-26T13:53:08;21.13;;;20.33;;
6121;SDS011;3091;51.506;7.672;2024-02-26T13:55:34;19.70;;;19.00;;
6121;SDS011;3091;51.506;7.672;2024-02-26T13:58:01;20.40;;;19.50;;
6121;SDS011;3091;51.506;7.672;2024-02-26T14:00:28;20.87;;;19.97;;
6121;SDS011;3091;51.506;7.672;2024-02-26T14:02:56;19.80;;;18.90;;
6121;SDS011;3091;51.506;7.672;2024-02-26T14:05:22;19.70;;;18.87;;
6121;SDS011;3091;51.506;7.672;2024-02-26T14:07:48;19.93;;;19.13;;
6121;SDS011;3091;51.506;7.672;2024-02-26T14:10:17;20.20;;;19.50;;
6121;SDS011;3091;51.506;7.672;2024-02-26T14:12:43;19.03;;;18.43;;
6121;SDS011;3091;51.506;7.672;2024-02-26T14:15:09;18.70;;;18.00;;
6121;SDS011;3091;51.506;7.672;2024-02-26T14:17:36;18.90;;;18.10;;
6121;SDS011;3091;51.506;7.672;2024-02-26T14:20:02;18.10;;;17.50;;
6121;SDS011;3091;51.506;7.672;2024-02-26T14:22:28;18.63;;;17.90;;
6121;SDS011;3091;51.506;7.672;2024-02-26T14:24:57;19.57;;;18.87;;
6121;SDS011;3091;51.506;7.672;2024-02-26T14:27:24;20.47;;;19.57;;
6121;SDS011;3091;51.506;7.672;2024-02-26T14:29:50;19.03;;;18.33;;
6121;SDS011;3091;51.506;7.672;2024-02-26T14:32:16;19.20;;;18.33;;
6121;SDS011;3091;51.506;7.672;2024-02-26T14:34:42;18.73;;;17.93;;
6121;SDS011;3091;51.506;7.672;2024-02-26T14:37:08;19.40;;;18.27;;
6121;SDS011;3091;51.506;7.672;2024-02-26T14:39:35;17.83;;;17.10;;
6121;SDS011;3091;51.506;7.672;2024-02-26T14:42:01;18.20;;;17.50;;
6121;SDS011;3091;51.506;7.672;2024-02-26T14:44:27;17.70;;;17.10;;
6121;SDS011;3091;51.506;7.672;2024-02-26T14:46:53;17.70;;;17.10;;